Latest Weather Observations for Gabo Island

IDN60801

Issued at 11:32 pm EDT Thursday 11 February 2016 (issued every 30 minutes, with the page automatically refreshed every 10 minutes)

About weather observations | Map of weather stations | Latest weather observations for NSW | Other Formats
Station Details ID: 084016 Name: GABO ISLAND LIGHTHOUSE Lat: -37.57 Lon: 149.92 Height: 15.2 m
Data from the previous 72 hours. | See also: Recent months at Gabo Island
Date/Time
EDT
Temp
°C
App
Temp
°C
Dew
Point
Rel
Hum
%
Delta-T
°C
Wind Press
QNH
hPa
Press
MSL
hPa
Rain
since 9 am
mm
Dir
 
Spd
km/h
Gust
km/h
Spd
kts
Gust
kts
11/11:30pm 20.4 20.2 16.8 80 2.2 WSW 13 15 7 8 1017.2 - 0.0
11/11:00pm 20.4 20.2 16.6 79 2.3 WSW 13 15 7 8 1017.6 - 0.0
11/10:30pm 20.7 21.3 16.7 78 2.4 WSW 9 11 5 6 1017.6 - 0.0
11/10:00pm 20.7 22.1 16.4 76 2.6 S 4 7 2 4 1017.3 - 0.0
11/09:30pm 20.6 22.7 16.3 76 2.6 CALM 0 0 0 0 1017.1 - 0.0
11/09:00pm 20.8 22.8 16.1 74 2.8 CALM 0 0 0 0 1016.6 1016.5 0.0
11/08:30pm 20.8 22.1 16.1 74 2.8 ESE 4 6 2 3 1016.5 - 0.0
11/08:00pm 21.0 21.9 16.0 73 3.0 SSE 6 7 3 4 1016.2 - 0.0
11/07:30pm 21.2 22.0 15.9 72 3.2 SSE 6 7 3 4 1015.8 - 0.0
11/07:00pm 21.3 22.0 16.1 72 3.1 S 7 7 4 4 1015.8 - 0.0
11/06:30pm 21.3 21.6 16.0 72 3.2 S 9 11 5 6 1015.6 - 0.0
11/06:00pm 21.4 21.3 15.9 71 3.3 S 11 13 6 7 1015.5 1015.4 0.0
11/05:30pm 21.5 21.0 15.8 70 3.4 S 13 15 7 8 1015.5 - 0.0
11/05:00pm 21.4 20.4 15.7 70 3.4 S 15 17 8 9 1015.3 - 0.0
11/04:30pm 21.7 20.9 16.2 71 3.3 S 15 17 8 9 1015.3 - 0.0
11/04:00pm 21.7 20.9 16.0 70 3.4 S 15 17 8 9 1015.3 - 0.0
11/03:30pm 21.5 20.2 15.8 70 3.4 SSW 17 19 9 10 1015.4 - 0.0
11/03:00pm 21.5 19.9 16.0 71 3.3 SSW 19 22 10 12 1015.5 1015.4 0.0
11/02:30pm 21.6 19.0 15.9 70 3.4 SSW 24 28 13 15 1015.7 - 0.0
11/02:00pm 21.8 18.9 16.2 70 3.4 SSW 26 30 14 16 1016.2 - 0.0
11/01:30pm 21.9 18.7 16.3 70 3.4 SSW 28 32 15 17 1016.3 - 0.0
11/01:00pm 21.5 17.6 15.6 69 3.5 SSW 30 33 16 18 1016.4 - 0.0
11/12:30pm 21.5 17.7 15.8 70 3.4 SSW 30 33 16 18 1016.5 - 0.0
11/12:00pm 21.2 17.5 16.0 72 3.1 SW 30 33 16 18 1016.7 1016.6 0.0
11/11:30am 21.5 18.3 16.4 72 3.1 SW 28 33 15 18 1016.8 - 0.0
11/11:00am 21.2 19.2 15.5 70 3.4 SW 20 26 11 14 1017.0 - 0.0
11/10:30am 21.9 20.3 16.1 69 3.5 WSW 19 26 10 14 1017.0 - 0.0
11/10:00am 22.5 19.6 16.2 67 3.8 WSW 26 30 14 16 1016.7 - 0.0
11/09:30am 21.8 18.9 16.2 70 3.4 WSW 26 30 14 16 1016.6 - 0.0
11/09:00am 21.0 18.4 16.0 73 3.0 WSW 24 28 13 15 1016.5 1016.4 0.0
11/08:30am 20.4 17.4 15.9 75 2.7 WSW 26 32 14 17 1016.2 - 0.0
11/08:00am 20.0 17.9 16.2 79 2.3 W 22 28 12 15 1016.2 - 0.0
11/07:30am 19.4 17.3 16.2 82 1.9 W 22 28 12 15 1015.9 - 0.0
11/07:00am 19.0 17.2 16.0 83 1.8 W 20 26 11 14 1015.6 - 0.0
11/06:30am 19.3 17.7 16.5 84 1.7 W 20 26 11 14 1015.3 - 0.0
11/06:00am 19.4 18.4 16.7 84 1.6 W 17 20 9 11 1015.2 1015.0 0.0
11/05:30am 19.3 18.3 16.6 84 1.6 W 17 20 9 11 1014.8 - 0.0
11/05:00am 19.3 18.4 16.8 85 1.5 W 17 20 9 11 1014.6 - 0.0
11/04:30am 19.4 18.7 17.3 88 1.3 W 17 20 9 11 1014.5 - 0.0
11/04:00am 19.1 19.1 17.1 88 1.2 W 13 15 7 8 1014.4 - 0.0
11/03:30am 19.1 19.0 17.0 88 1.3 W 13 17 7 9 1014.2 - 0.0
11/03:00am 19.4 19.7 16.9 85 1.5 WSW 11 13 6 7 1014.4 1014.3 0.0
11/02:30am 19.5 19.8 17.0 85 1.5 WSW 11 13 6 7 1014.5 - 0.0
11/02:00am 19.4 19.4 17.1 86 1.4 W 13 15 7 8 1014.8 - 0.0
11/01:30am 19.8 19.8 17.3 85 1.5 WSW 13 15 7 8 1015.0 - 0.0
11/01:00am 19.9 19.9 17.3 85 1.6 WSW 13 15 7 8 1015.0 - 0.0
11/12:30am 19.9 20.3 17.3 85 1.6 WSW 11 13 6 7 1015.2 - 0.0
11/12:00am 19.9 19.8 16.9 83 1.8 WSW 13 15 7 8 1015.3 1015.2 0.0
 
Date/Time
EDT
Temp
°C
App
Temp
°C
Dew
Point
Rel
Hum
%
Delta-T
°C
Wind Press
QNH
hPa
Press
MSL
hPa
Rain
since 9 am
mm
Dir
 
Spd
km/h
Gust
km/h
Spd
kts
Gust
kts
10/11:30pm 20.1 19.6 16.8 81 2.0 WSW 15 17 8 9 1015.3 - 0.0
10/11:00pm 20.1 19.6 16.8 81 2.0 WSW 15 19 8 10 1015.3 - 0.0
10/10:30pm 20.5 21.9 17.7 84 1.7 SW 7 11 4 6 1015.5 - 0.0
10/10:00pm 20.5 20.9 17.2 81 2.0 SW 11 15 6 8 1015.6 - 0.0
10/09:30pm 20.7 21.1 17.3 81 2.1 WSW 11 13 6 7 1015.4 - 0.0
10/09:00pm 21.1 20.3 17.2 78 2.4 SW 17 19 9 10 1015.4 1015.3 0.0
10/08:30pm 21.1 21.2 17.5 80 2.2 SW 13 19 7 10 1015.2 - 0.0
10/08:00pm 21.1 20.3 17.2 78 2.4 SSW 17 20 9 11 1014.8 - 0.0
10/07:30pm 21.2 20.5 17.3 78 2.4 SSW 17 19 9 10 1014.5 - 0.0
10/07:00pm 21.2 19.6 17.5 79 2.3 SSW 22 26 12 14 1014.1 - 0.0
10/06:30pm 21.4 19.7 18.0 81 2.1 SSW 24 30 13 16 1013.7 - 0.0
10/06:00pm 21.7 20.5 18.3 81 2.1 SSW 22 26 12 14 1013.4 1013.3 0.0
10/05:30pm 21.7 19.7 18.3 81 2.1 SSW 26 30 14 16 1013.2 - 0.0
10/05:00pm 21.7 19.0 18.5 82 2.0 SSW 30 35 16 19 1013.1 - 0.0
10/04:30pm 21.7 19.1 18.7 83 1.9 SSW 30 35 16 19 1013.0 - 0.0
10/04:00pm 22.0 19.6 19.0 83 1.9 SSW 30 35 16 19 1013.2 - 0.0
10/03:30pm 22.0 19.4 18.7 81 2.1 SSW 30 33 16 18 1013.1 - 0.0
10/03:00pm 22.0 18.8 18.7 81 2.1 SSW 33 37 18 20 1013.2 1013.1 0.0
10/02:30pm 22.1 18.9 18.6 80 2.2 SSW 33 41 18 22 1013.2 - 0.0
10/02:00pm 22.2 19.3 18.9 81 2.1 SSW 32 35 17 19 1013.4 - 0.0
10/01:30pm 22.0 19.5 18.8 82 2.0 SSW 30 35 16 19 1013.5 - 0.0
10/01:00pm 22.1 19.6 18.9 82 2.0 SSW 30 35 16 19 1013.7 - 0.0
10/12:30pm 22.1 20.1 19.1 83 1.9 SSW 28 32 15 17 1013.9 - 0.0
10/12:00pm 22.9 21.6 19.1 79 2.4 SSW 24 28 13 15 1014.1 1014.0 0.0
10/11:30am 22.1 19.9 18.6 80 2.2 SSW 28 32 15 17 1014.2 - 0.0
10/11:00am 21.8 19.8 18.4 81 2.1 SSW 26 32 14 17 1014.4 - 0.0
10/10:30am 22.2 21.2 17.9 76 2.7 SSW 20 26 11 14 1014.5 - 0.0
10/10:00am 22.4 22.2 16.8 70 3.4 SW 13 15 7 8 1014.5 - 0.0
10/09:30am 21.8 21.9 17.4 76 2.7 WSW 13 17 7 9 1014.4 - 0.0
10/09:00am 21.2 21.9 17.1 77 2.5 WSW 9 11 5 6 1014.1 1014.0 0.0
10/08:30am 20.7 21.2 16.6 77 2.5 W 9 13 5 7 1014.0 - 0.0
10/08:00am 20.7 21.7 16.4 76 2.6 N 6 9 3 5 1013.8 - 0.0
10/07:30am 20.0 20.0 15.3 74 2.8 N 9 11 5 6 1013.5 - 0.0
10/07:00am 19.1 18.9 14.8 76 2.5 N 9 13 5 7 1013.6 - 0.0
10/06:30am 18.6 17.6 14.6 77 2.3 N 13 15 7 8 1013.5 - 0.0
10/06:00am 19.0 17.3 14.7 76 2.5 N 17 19 9 10 1013.5 1013.4 0.0
10/05:30am 19.3 18.0 14.8 75 2.6 N 15 20 8 11 1013.4 - 0.0
10/05:00am 19.4 18.2 15.1 76 2.5 N 15 22 8 12 1013.2 - 0.0
10/04:30am 19.7 17.6 15.3 76 2.6 N 20 28 11 15 1013.2 - 0.0
10/04:00am 20.0 16.5 15.4 75 2.7 NNE 28 33 15 18 1013.3 - 0.0
10/03:30am 19.9 17.5 15.5 76 2.6 N 22 32 12 17 1013.7 - 0.0
10/03:00am 20.0 17.1 16.0 78 2.4 NNE 26 35 14 19 1014.0 1013.9 0.0
10/02:30am 20.0 17.3 15.6 76 2.6 N 24 32 13 17 1014.3 - 0.0
10/02:00am 20.0 17.0 15.8 77 2.5 NNE 26 35 14 19 1014.7 - 0.0
10/01:30am 20.0 17.9 16.2 79 2.3 N 22 28 12 15 1015.2 - 0.0
10/01:00am 20.1 18.5 16.6 80 2.1 N 20 26 11 14 1015.7 - 0.0
10/12:30am 20.1 18.8 16.8 81 2.0 N 19 24 10 13 1016.2 - 0.0
10/12:00am 20.1 18.5 16.6 80 2.1 N 20 24 11 13 1016.6 1016.5 0.0
 
Date/Time
EDT
Temp
°C
App
Temp
°C
Dew
Point
Rel
Hum
%
Delta-T
°C
Wind Press
QNH
hPa
Press
MSL
hPa
Rain
since 9 am
mm
Dir
 
Spd
km/h
Gust
km/h
Spd
kts
Gust
kts
09/11:30pm 20.2 18.8 16.9 81 2.0 NNE 20 26 11 14 1016.9 - 0.0
09/11:00pm 20.3 18.4 16.7 80 2.2 NNE 22 26 12 14 1017.2 - 0.0
09/10:30pm 20.4 18.6 16.9 80 2.1 NNE 22 30 12 16 1017.5 - 0.0
09/10:00pm 20.7 18.7 17.4 81 2.0 NNE 24 30 13 16 1017.6 - 0.0
09/09:30pm 20.9 18.2 17.5 81 2.1 NNE 28 35 15 19 1017.6 - 0.0
09/09:00pm 21.1 17.6 17.5 80 2.2 NNE 32 37 17 20 1017.6 1017.5 0.0
09/08:30pm 21.3 17.9 17.6 79 2.3 NNE 32 37 17 20 1017.5 - 0.0
09/08:00pm 21.5 18.1 17.8 79 2.3 NE 32 39 17 21 1017.5 - 0.0
09/07:30pm 21.6 18.4 18.1 80 2.2 NE 32 39 17 21 1017.5 - 0.0
09/07:00pm 21.8 18.6 18.1 79 2.3 NE 32 35 17 19 1017.5 - 0.0
09/06:30pm 22.0 19.3 18.5 80 2.2 NE 30 33 16 18 1017.5 - 0.0
09/06:00pm 22.4 20.8 18.4 78 2.5 NE 24 28 13 15 1017.8 1017.7 0.0
09/05:30pm 22.4 20.7 18.2 77 2.6 ENE 24 26 13 14 1018.1 - 0.0
09/05:00pm 22.8 21.9 18.3 76 2.8 E 20 22 11 12 1018.5 - 0.0
09/04:30pm 22.9 22.4 17.7 72 3.2 E 17 22 9 12 1018.9 - 0.0
09/04:00pm 23.1 22.5 17.6 71 3.4 E 17 20 9 11 1019.2 - 0.0
09/03:30pm 23.4 23.5 17.4 69 3.7 ESE 13 19 7 10 1019.5 - 0.0
09/03:00pm 23.5 23.6 17.5 69 3.7 SE 13 17 7 9 1019.8 1019.7 0.0
09/02:30pm 23.4 23.1 17.4 69 3.7 SSE 15 20 8 11 1020.2 - 0.0
09/02:00pm 22.9 22.1 17.0 69 3.6 SSE 17 20 9 11 1020.6 - 0.0
09/01:30pm 23.5 22.4 17.2 67 3.9 S 19 20 10 11 1020.9 - 0.0
09/01:00pm 23.5 22.1 16.6 65 4.2 S 19 20 10 11 1021.0 - 0.0
09/12:30pm 23.3 21.8 16.2 64 4.3 SSW 19 20 10 11 1021.3 - 0.0
09/12:00pm 22.0 20.8 15.1 65 4.1 SSW 15 17 8 9 1021.6 1021.5 0.0
09/11:30am 22.0 21.3 15.3 65 4.0 SW 13 17 7 9 1021.7 - 0.0
09/11:00am 22.2 20.9 14.9 63 4.3 WSW 15 17 8 9 1021.8 - 0.0
09/10:30am 22.1 20.7 15.6 66 3.9 W 17 20 9 11 1021.9 - 0.0
09/10:00am 21.5 19.8 14.7 65 4.0 W 17 20 9 11 1022.0 - 0.0
09/09:30am 20.9 18.7 14.4 66 3.8 W 19 22 10 12 1022.0 - 0.0
09/09:00am 20.2 18.1 14.7 70 3.2 WNW 19 22 10 12 1022.0 1021.8 0.0
09/08:30am 19.1 17.4 14.6 75 2.6 WNW 17 20 9 11 1021.8 - 0.0
09/08:00am 17.8 15.9 14.1 79 2.1 WNW 17 24 9 13 1021.7 - 0.0
09/07:30am 17.1 14.9 14.5 85 1.5 WNW 19 22 10 12 1021.5 - 0.0
09/07:00am 17.1 14.8 14.7 86 1.4 WNW 20 26 11 14 1021.3 - 0.0
09/06:30am 17.4 14.5 13.9 80 2.0 W 22 28 12 15 1021.1 - 0.0
09/06:00am 17.0 15.2 14.5 85 1.4 WNW 17 26 9 14 1020.9 1020.7 0.0
09/05:30am 17.7 14.2 14.6 82 1.8 W 26 32 14 17 1020.6 - 0.0
09/05:00am 17.6 14.3 15.0 85 1.5 W 26 35 14 19 1020.3 - 0.0
09/04:30am 17.6 13.9 15.0 85 1.5 W 28 35 15 19 1020.3 - 0.0
09/04:00am 17.9 14.2 15.1 84 1.6 W 28 35 15 19 1020.1 - 0.0
09/03:30am 17.9 13.8 15.0 83 1.7 W 30 37 16 20 1020.1 - 0.0
09/03:00am 18.1 14.5 15.2 83 1.7 W 28 35 15 19 1020.3 1020.2 0.0
09/02:30am 18.2 14.5 15.1 82 1.8 W 28 35 15 19 1020.4 - 0.0
09/02:00am 18.4 14.4 15.1 81 1.9 W 30 37 16 20 1020.6 - 0.0
09/01:30am 18.6 15.5 15.7 83 1.7 W 26 32 14 17 1020.9 - 0.0
09/01:00am 18.6 15.6 15.9 84 1.6 W 26 32 14 17 1021.0 - 0.0
09/12:30am 18.8 16.0 16.3 85 1.5 W 26 30 14 16 1021.0 - 0.0
09/12:00am 18.6 16.0 15.9 84 1.6 W 24 30 13 16 1021.2 1021.1 0.0

Other Formats:

Comma delimited format used in spreadsheet applications
http://www.bom.gov.au/fwo/IDN60801/IDN60801.94933.axf

JavaScript Object Notation format (JSON) in row-major order
http://www.bom.gov.au/fwo/IDN60801/IDN60801.94933.json